Tiempo atmosférico en la estación meteorológica de Ceuta, Ceuta (87 m.)



Fecha
DESCASC
Temp. máxima en grados centígrados (hora)
DESCASC
Temp. mínima en grados centígrados (hora)
DESCASC
Temp. media en grados centígrados
DESCASC
Racha de viento máxima en m/sg (hora)
DESCASC
Velocidad máxima media en intervalos de 10 minutos(hora)
DESCASC
Precipitaciones diarias en mm
DESCASC
Precipitaciones de 00:00 a 06:00 en mm
DESCASC
Precipitaciones de 06:00 a 12:00 en mm
DESCASC
Precipitaciones de 12:00 a 18:00 en mm
DESCASC
Precipitaciones de 18:00 a 24:00 en mm
DESCASC
18-02-2018 16.4 (11:00) 10.6 (08:00) 13.5 7.5 (00:10) 3.33 (12:30) 0 0 0 0 0
17-02-2018 18.5 (14:00) 11.9 (21:10) 15.2 9.44 (05:10) 3.89 (07:20) 0 0 0 0 0
16-02-2018 17.3 (12:50) 11.6 (03:10) 14.4 4.72 (14:20) 3.06 (11:50) 0 0 0 0 0
15-02-2018 18.7 (15:20) 10.9 (00:00) 14.8 5 (01:20) 3.33 (17:30) 0.3 0 0.3 0 0
14-02-2018 15.9 (12:50) 9.9 (00:00) 12.9 14.72 (20:30) 6.94 (20:20) 0 0 0 0 0
13-02-2018 15.6 (13:50) 8.9 (00:00) 12.3 12.78 (16:00) 5.83 (15:40) 0 0 0 0 0
12-02-2018 17 (14:30) 12.1 (00:00) 14.6 13.61 (17:10) 6.11 (17:10) 5 0 0 4.4 0.6
11-02-2018 17.1 (14:20) 9.8 (00:00) 13.5 12.5 (19:10) 4.17 (18:50) 0 0 0 0 0
10-02-2018 15 (12:50) 10.9 (00:00) 12.9 13.89 (18:10) 5.83 (14:20) 0.2 0.2 0 0 0
09-02-2018 13.5 (16:40) 8.1 (00:00) 10.8 13.33 (15:30) 5.56 (11:10) 0 0 0 0 0
08-02-2018 11.6 (14:20) 7.2 (00:00) 9.4 8.06 (11:20) 4.72 (11:20) 8.4 1.4 2.4 4.6 0
07-02-2018 10.4 (00:30) 7.2 (00:00) 8.8 6.94 (15:40) 4.17 (15:40) 11.8 0 0.4 0 11.4
06-02-2018 11.9 (12:40) 6.7 (00:00) 9.3 12.22 (14:50) 5.83 (14:10) 0 0 0 0 0
05-02-2018 13.3 (14:20) 7.3 (00:00) 10.3 11.67 (16:40) 4.72 (15:30) 0 0 0 0 0
04-02-2018 11.3 (03:10) 6.4 (00:00) 8.9 12.78 (09:00) 6.94 (14:50) 16.8 0 4.8 11 1
03-02-2018 15 (14:50) 7.2 (00:00) 11.1 8.89 (13:30) 4.44 (13:30) 0 0 0 0 0
02-02-2018 12.8 (14:40) 8.1 (00:00) 10.5 13.89 (01:10) 7.78 (01:10) 0 0 0 0 0
01-02-2018 16.8 (14:00) 11 (00:00) 13.9 12.5 (20:10) 6.11 (23:30) 3.4 0 0 0 3.4
31-01-2018 14.4 (13:00) 12.7 (00:00) 13.5 12.5 (01:30) 7.22 (06:20) 6.2 0.2 0.2 0 5.8
30-01-2018 14.9 (12:50) 13.9 (00:00) 14.4 15 (03:20) 8.89 (03:20) 0.2 0.2 0 0 0
29-01-2018 15.1 (16:20) 12.2 (00:00) 13.7 22.5 (11:40) 11.94 (12:10) 0.4 0.2 0.2 0 0
28-01-2018 13.4 (23:00) 8.1 (00:00) 10.8 16.94 (19:50) 9.72 (20:50) 13.4 0 0 12.8 0.6
27-01-2018 14.6 (14:00) 8.8 (00:00) 11.7 9.44 (00:10) 5 (00:20) 0 0 0 0 0
26-01-2018 13.9 (16:40) 8.8 (00:00) 11.3 15.83 (01:10) 8.33 (01:10) 0.8 0.8 0 0 0
25-01-2018 17.3 (13:00) 11 (00:00) 14.1 14.17 (22:30) 6.39 (23:10) 8 0 0 0 8
24-01-2018 16.4 (13:20) 12.9 (00:00) 14.6 6.67 (14:00) 4.44 (14:00) 0 0 0 0 0
23-01-2018 19.6 (16:20) 12.5 (00:00) 16.1 5.83 (17:20) 3.33 (17:20) 0 0 0 0 0
22-01-2018 21.4 (16:00) 13.2 (00:00) 17.3 6.39 (00:10) 3.33 (01:10) 0 0 0 0 0

Gráficas

Temp. máximas Temp. mínimas Temp. medias Precipitaciones Rachas de viento máximas Velocidades máximas media en intervalos de 10 minutos

Datos horarios

Fecha y hora oficial Temperatura (ºC) Velocidad del viento (km/h) Dirección del viento Racha (km/h) Dirección de racha Precipitación (mm) Presión (hPa) Tendencia (hPa) Humedad (%)
2018-02-20 23:00:00 15 5 Noroeste 11 Noroeste 0 1002.3 -0.5 60
2018-02-20 22:00:00 14.4 5 Sudoeste 7 Sudoeste 0 1002.7 -0.3 59
2018-02-20 21:00:00 13.7 3 Oeste 8 Norte 0 1002.8 -0.4 64
2018-02-20 20:00:00 14.7 5 Sudoeste 8 Sudoeste 0 1002.8 -0.7 82
2018-02-20 19:00:00 15.5 4 Sur 8 Sur 0 1003 -1 79
2018-02-20 18:00:00 17.7 4 Sur 12 Sudeste 0 1003.2 -1.3 67
2018-02-20 17:00:00 17.2 9 Sur 16 Sur 0 1003.5 -1.7 70
2018-02-20 16:00:00 17.6 9 Sudeste 14 Sur 0 1004 -2.2 63
2018-02-20 15:00:00 17.2 10 Sur 17 Sur 0 1004.5 -2.1 64
2018-02-20 14:00:00 17.1 10 Sudeste 18 Sur 0 1005.2 -1.9 67
2018-02-20 13:00:00 16.6 10 Sudeste 15 Sur 0 1006.2 -0.9 70
2018-02-20 12:00:00 15.8 9 Sudeste 15 Sur 0 1006.6 -0.1 78
2018-02-20 11:00:00 14.1 6 Norte 13 Nordeste 0 1007.1 1 92
2018-02-20 10:00:00 14 5 Norte 12 Norte 0 1007.1 1.1 93
2018-02-20 09:00:00 12.8 2 Noroeste 8 Nordeste 0 1006.7 0.7 98
2018-02-20 08:00:00 12.6 5 Este 9 Nordeste 0 1006.1 -0.1 99
2018-02-20 07:00:00 12 0 Calma 5 Este 0 1006 -0.4 96
2018-02-20 06:00:00 12 3 Sudeste 7 Sudeste 0 1006 -0.4 96
2018-02-20 05:00:00 12.1 4 Sudeste 8 Sudeste 0 1006.2 -0.5 95
2018-02-20 04:00:00 11.8 0 Calma 5 Oeste 0 1006.4 -0.3 96
2018-02-20 03:00:00 11.8 3 Sudoeste 5 Oeste 0 1006.4 -0.5 96
2018-02-20 02:00:00 11.9 3 Sudoeste 8 Sur 0 1006.7 -0.4 95
2018-02-20 01:00:00 12.5 5 Sur 10 Sudoeste 0 1006.7 -0.4 93
2018-02-20 00:00:00 12.5 5 Sudoeste 9 Sudoeste 0 1006.9 0 93
2018-02-19 23:00:00 12.5 5 Sudoeste 9 Sur 0 1007.1 0.4 92
2018-02-19 22:00:00 13.2 5 Sur 9 Sudoeste 0 1007.1 0.6 90
2018-02-19 21:00:00 13.7 4 Sudeste 9 Sudeste 0 1006.9 0.8 88
2018-02-19 20:00:00 13.9 4 Sur 9 Sur 0 1006.7 0.8 87
2018-02-19 19:00:00 14.3 4 Sur 9 Sur 0 1006.5 0.4 84
2018-02-19 18:00:00 15.2 4 Sudeste 14 Sur 0 1006.1 -0.1 79
2018-02-19 17:00:00 16 6 Sudeste 13 Sudeste 0 1005.9 -0.9 77
2018-02-19 16:00:00 16.3 7 Sudeste 15 Sudeste 0 1006.1 -1.4 72
2018-02-19 15:00:00 15.6 5 Este 13 Nordeste 0 1006.2 -1.6 80
2018-02-19 14:00:00 15.2 7 Nordeste 15 Nordeste 0 1006.8 -0.8 81
2018-02-19 13:00:00 15.3 8 Nordeste 17 Nordeste 0 1007.5 0 84
2018-02-19 12:00:00 14.7 7 Nordeste 14 Norte 0 1007.8 0.6 87
2018-02-19 11:00:00 14 9 Norte 16 Nordeste 0 1007.6 0.6 92
2018-02-19 10:00:00 13.4 10 Norte 18 Norte 0 1007.5 0.7 94
2018-02-19 09:00:00 12.4 3 Noroeste 5 Sudoeste 0 1007.2 0.4 93
2018-02-19 08:00:00 11.5 5 Oeste 7 Oeste 0 1007 0.3 95
2018-02-19 07:00:00 11.7 6 Oeste 9 Sudoeste 0 1006.8 -0.1 94
2018-02-19 06:00:00 12.5 4 Sudoeste 8 Sudoeste 0 1006.8 -0.5 90
2018-02-19 05:00:00 13.1 4 Este 10 Este 0 1006.7 -0.8 89
2018-02-19 04:00:00 13.2 5 Sudeste 10 Sudeste 0 1006.9 -1.3 89
2018-02-19 03:00:00 13 6 Este 11 Este 0 1007.3 -1.1 91
2018-02-19 02:00:00 13.1 6 Este 14 Este 0 1007.5 -1.1 91
2018-02-19 01:00:00 13.6 9 Este 15 Este 0 1008.2 -0.5 89
2018-02-19 00:00:00 13.5 8 Este 13 Este 0 1008.4 -0.2 87
2018-02-18 23:00:00 13.7 8 Nordeste 14 Nordeste 0 1008.6 0.1 88
2018-02-18 22:00:00 13.8 8 Este 17 Nordeste 0 1008.7 0.5 88
2018-02-18 21:00:00 13.9 9 Nordeste 15 Nordeste 0 1008.6 0.4 89
2018-02-18 20:00:00 13.6 7 Nordeste 14 Nordeste 0 1008.5 0.3 94
2018-02-18 19:00:00 13.9 5 Nordeste 11 Nordeste 0 1008.2 -0.2 90
2018-02-18 18:00:00 14.8 8 Norte 17 Norte 0 1008.2 -0.7 89
2018-02-18 17:00:00 15.3 10 Norte 17 Norte 0 1008.2 -1.1 87
2018-02-18 16:00:00 15.5 9 Norte 19 Norte 0 1008.4 -1.7 84
2018-02-18 15:00:00 15.9 12 Norte 19 Norte 0 1008.9 -1.6 79
2018-02-18 14:00:00 16.3 8 Norte 18 Norte 0 1009.3 -1.3 76
2018-02-18 13:00:00 16.1 10 Norte 21 Norte 0 1010.1 -0.3 77
2018-02-18 12:00:00 15.9 11 Noroeste 22 Noroeste 0 1010.5 0.4 69
2018-02-18 11:00:00 16.2 7 Noroeste 16 Noroeste 0 1010.6 0.9 66
2018-02-18 10:00:00 14.9 7 Sudeste 9 Sudeste 0 1010.4 1 67
2018-02-18 09:00:00 12.5 2 Noroeste 8 Noroeste 0 1010.1 0.6 79
2018-02-18 08:00:00 10.6 5 Noroeste 8 Oeste 0 1009.7 0.2 83
2018-02-18 07:00:00 11.3 2 Noroeste 7 Noroeste 0 1009.4 -0.6 78
2018-02-18 06:00:00 11.4 3 Sur 9 Norte 0 1009.5 -0.7 79
2018-02-18 05:00:00 11.7 4 Noroeste 16 Noroeste 0 1009.5 -1 77
2018-02-18 04:00:00 11.7 4 Noroeste 8 Este 0 1010 -0.7 78
2018-02-18 03:00:00 11.8 2 Sudeste 9 Noroeste 0 1010.2 -0.4 78
2018-02-18 02:00:00 11.6 3 Oeste 8 Oeste 0 1010.5 -0.2 78
2018-02-18 01:00:00 12.8 4 Este 27 Noroeste 0 1010.7 -0.3 70
2018-02-18 00:00:00 13.3 11 Noroeste 26 Noroeste 0 1010.6 -0.6 65
2018-02-17 23:00:00 12.7 7 Oeste 19 Oeste 0 1010.7 -0.2 69
2018-02-17 22:00:00 12.6 4 Oeste 12 Noroeste 0 1011 0.2 70
2018-02-17 21:00:00 12.2 4 Oeste 14 Noroeste 0 1011.2 0.8 72
2018-02-17 20:00:00 12.9 4 Oeste 9 Norte 0 1010.9 0.5 69
2018-02-17 19:00:00 13.9 7 Noroeste 33 Noroeste 0 1010.8 0.4 65
2018-02-17 18:00:00 15.6 11 Noroeste 32 Noroeste 0 1010.4 -0.4 59
2018-02-17 17:00:00 16.4 14 Oeste 32 Noroeste 0 1010.4 -1.1 57
2018-02-17 16:00:00 17.4 13 Oeste 32 Noroeste 0 1010.4 -1.9 55
2018-02-17 15:00:00 18.1 11 Oeste 27 Noroeste 0 1010.8 -2 54
2018-02-17 14:00:00 18.5 8 Noroeste 24 Sudoeste 0 1011.5 -1.4 55
2018-02-17 13:00:00 17.7 10 Oeste 30 Sudoeste 0 1012.3 -0.5 55
2018-02-17 12:00:00 17.1 10 Oeste 33 Noroeste 0 1012.8 0.1 57
2018-02-17 11:00:00 16.4 13 Oeste 31 Oeste 0 1012.9 0.5 61
2018-02-17 10:00:00 15.4 10 Oeste 29 Oeste 0 1012.8 0.8 69
2018-02-17 09:00:00 14.3 9 Noroeste 28 Oeste 0 1012.7 1.1 69
2018-02-17 08:00:00 13.5 12 Oeste 34 Oeste 0 1012.4 1 71
2018-02-17 07:00:00 13.3 12 Noroeste 32 Oeste 0 1012 0.6 77
2018-02-17 06:00:00 13.2 10 Oeste 34 Oeste 0 1011.6 -0.2 80
2018-02-17 05:00:00 13.4 11 Oeste 28 Noroeste 0 1011.4 -0.6 83
2018-02-17 04:00:00 13.7 8 Oeste 32 Noroeste 0 1011.4 -0.9 82
2018-02-17 03:00:00 13.9 11 Oeste 31 Noroeste 0 1011.8 -0.5 81
2018-02-17 02:00:00 14 11 Oeste 29 Noroeste 0 1012 -0.4 79
2018-02-17 01:00:00 14.2 9 Oeste 25 Noroeste 0 1012.3 0 79
2018-02-17 00:00:00 13.7 5 Oeste 15 Noroeste 0 1012.3 0.1 77
2018-02-16 23:00:00 12.8 4 Sudoeste 8 Sur 0 1012.4 0.4 85
2018-02-16 22:00:00 13 2 Sur 8 Sudoeste 0 1012.3 0.7 86
2018-02-16 21:00:00 13.1 4 Sudoeste 7 Sudoeste 0 1012.2 0.8 87
2018-02-16 20:00:00 13.6 2 Sudoeste 8 Noroeste 0 1012 0.5 88
2018-02-16 19:00:00 14.6 5 Sur 10 Sur 0 1011.6 0 84
2018-02-16 18:00:00 16.4 5 Sur 13 Sudeste 0 1011.4 -0.5 77
2018-02-16 17:00:00 17 7 Sudeste 12 Sur 0 1011.5 -1.1 73
2018-02-16 16:00:00 17.1 7 Sudeste 15 Sur 0 1011.6 -1.7 72
2018-02-16 15:00:00 16.7 10 Sudeste 17 Sudeste 0 1011.9 -2 68
2018-02-16 14:00:00 17.2 10 Sudeste 16 Sudeste 0 1012.6 -1.2 67
2018-02-16 13:00:00 17.1 8 Sudeste 14 Sur 0 1013.3 -0.2 65
2018-02-16 12:00:00 16.1 10 Sur 16 Sur 0 1013.9 0.4 67
2018-02-16 11:00:00 16.1 7 Sur 12 Sur 0 1013.8 0.9 67
2018-02-16 10:00:00 14.6 5 Nordeste 8 Nordeste 0 1013.5 0.6 84
2018-02-16 09:00:00 13.1 4 Sur 9 Sudoeste 0 1013.5 0.8 86
2018-02-16 08:00:00 12.2 6 Sur 12 Sudoeste 0 1012.9 0.2 90
2018-02-16 07:00:00 12.5 8 Sudoeste 10 Sudoeste 0 1012.9 -0.2 86
2018-02-16 06:00:00 12.4 7 Sur 10 Sudoeste 0 1012.7 -0.6 81
2018-02-16 05:00:00 12.5 8 Sudoeste 10 Sudoeste 0 1012.7 -0.9 92
2018-02-16 04:00:00 12.5 6 Sudoeste 8 Sur 0 1013.1 -0.8 92
2018-02-16 03:00:00 11.9 4 Sudoeste 7 Oeste 0 1013.3 -0.8 81
2018-02-16 02:00:00 12 6 Oeste 8 Oeste 0 1013.6 -0.6 79
2018-02-16 01:00:00 12.1 0 Calma 5 Oeste 0 1013.9 -0.2 82
2018-02-16 00:00:00 12.7 5 Sudoeste 9 Sudoeste 0 1014.1 0 74
2018-02-15 23:00:00 12.9 5 Sudoeste 8 Sudoeste 0 1014.2 0.4 75
2018-02-15 22:00:00 13.1 4 Sudoeste 10 Sudoeste 0 1014.1 0.6 80
2018-02-15 21:00:00 13.5 7 Sudoeste 12 Sudoeste 0 1014.1 0.6 78
2018-02-15 20:00:00 13.7 7 Sudoeste 11 Sur 0 1013.8 0.3 83
2018-02-15 19:00:00 14.6 6 Sur 16 Sur 0 1013.5 -0.1 79
2018-02-15 18:00:00 16.1 9 Sur 15 Sur 0 1013.5 0.1 73
2018-02-15 17:00:00 17.2 8 Sur 14 Sudeste 0 1013.5 -0.4 71
2018-02-15 16:00:00 17.7 8 Sudeste 17 Sudeste 0 1013.6 -1.2 67
2018-02-15 15:00:00 18.4 9 Este 13 Este 0 1013.4 -1.6 61
2018-02-15 14:00:00 18.4 8 Sudeste 12 Sudeste 0 1013.9 -0.6 59
2018-02-15 13:00:00 17.5 8 Sudeste 13 Este 0 1014.8 0.8 63
2018-02-15 12:00:00 17.3 8 Este 11 Este 0 1015 1.3 58
2018-02-15 11:00:00 16.5 5 Este 10 Este 0 1014.5 1.2 58
2018-02-15 10:00:00 15.3 6 Nordeste 12 Sur -- 1014 0.9 61
2018-02-15 09:00:00 13.2 5 Sur 9 Sudeste 0 1013.7 0.8 73
2018-02-15 08:00:00 11.1 4 Sudoeste 8 Oeste 0 1013.3 0.6 81
2018-02-15 07:00:00 11.3 5 Sudoeste 9 Oeste 0 1013.1 0.2 78
2018-02-15 06:00:00 12.1 2 Noroeste 12 Sudeste 0 1012.9 0 75
2018-02-15 05:00:00 12.2 5 Sudoeste 12 Noroeste 0 1012.7 -0.5 74
2018-02-15 04:00:00 12.4 6 Oeste 18 Noroeste 0 1012.9 -0.4 70
2018-02-15 03:00:00 12.1 4 Oeste 17 Noroeste 0 1012.9 -0.3 72
2018-02-15 02:00:00 11.7 4 Sudoeste 18 Norte 0 1013.2 -0.1 71
2018-02-15 01:00:00 11.9 6 Este 14 Sur 0 1013.3 0.1 73
2018-02-15 00:00:00 12.5 4 Sur 28 Oeste 0 1013.2 0.3 69
2018-02-14 23:00:00 13.2 11 Oeste 25 Sudoeste 0 1013.3 0.4 63
2018-02-14 22:00:00 13.1 10 Oeste 50 Oeste 0 1013.2 0.4 62
2018-02-14 21:00:00 13.2 20 Noroeste 53 Noroeste 0 1012.9 0.2 61
2018-02-14 20:00:00 13.2 23 Noroeste 43 Norte 0 1012.9 0.5 58
2018-02-14 19:00:00 13.4 14 Oeste 46 Noroeste 0 1012.8 0.1 61
2018-02-14 18:00:00 14.4 15 Oeste 39 Noroeste 0 1012.7 0 57
2018-02-14 17:00:00 15.2 17 Noroeste 39 Noroeste 0 1012.4 -0.9 56
2018-02-14 16:00:00 15.6 13 Oeste 33 Noroeste 0 1012.7 -1.2 54
2018-02-14 15:00:00 14.5 11 Noroeste 29 Noroeste 0 1012.7 -1.6 58
2018-02-14 14:00:00 15.2 7 Noroeste 32 Noroeste 0 1013.3 -0.8 56
2018-02-14 13:00:00 15.8 10 Noroeste 26 Sudoeste 0 1013.9 0.4 59
2018-02-14 12:00:00 14.7 11 Oeste 36 Noroeste 0 1014.3 1.2 62
2018-02-14 11:00:00 13.1 11 Noroeste 25 Oeste 0 1014.1 1.1 71
2018-02-14 10:00:00 14.2 8 Oeste 28 Noroeste 0 1013.5 0.9 64
2018-02-14 09:00:00 12.4 6 Oeste 25 Sudoeste 0 1013.1 0.9 68
2018-02-14 08:00:00 11.6 7 Oeste 26 Oeste 0 1013 0.7 73
2018-02-14 07:00:00 10.7 8 Oeste 20 Sudoeste 0 1012.6 -0.3 76
2018-02-14 06:00:00 10 4 Sudoeste 8 Sur 0 1012.2 -0.6 83
2018-02-14 05:00:00 10.2 3 Sudeste 12 Noroeste 0 1012.3 -0.7 82
2018-02-14 04:00:00 11.1 7 Oeste 29 Noroeste 0 1012.9 -0.3 79
2018-02-14 03:00:00 10.6 5 Oeste 24 Oeste 0 1012.8 -0.6 79
2018-02-14 02:00:00 10.9 7 Oeste 18 Noroeste 0 1013 -0.5 74
2018-02-14 01:00:00 10.4 5 Este 21 Sudoeste 0 1013.2 -0.1 73
2018-02-14 00:00:00 10.7 5 Oeste 17 Noroeste 0 1013.4 0.6 72
2018-02-13 23:00:00 11.1 5 Oeste 21 Noroeste 0 1013.5 0.8 67
2018-02-13 22:00:00 11.8 9 Oeste 33 Noroeste 0 1013.3 0.4 60
2018-02-13 21:00:00 11.3 3 Sudoeste 14 Oeste 0 1012.8 0.4 64
2018-02-13 20:00:00 11.6 5 Sur 16 Oeste 0 1012.7 0.3 62
2018-02-13 19:00:00 12.2 4 Sudoeste 23 Noroeste 0 1012.9 0.4 64
2018-02-13 18:00:00 13.5 7 Noroeste 24 Noroeste 0 1012.4 -0.4 55
2018-02-13 17:00:00 14.2 13 Noroeste 36 Noroeste 0 1012.4 -1.1 55
2018-02-13 16:00:00 14.2 19 Noroeste 46 Noroeste 0 1012.5 -2 54
2018-02-13 15:00:00 15.3 12 Noroeste 30 Noroeste 0 1012.8 -2.3 51
2018-02-13 14:00:00 15.4 8 Noroeste 24 Noroeste 0 1013.5 -1.4 52
2018-02-13 13:00:00 15 11 Noroeste 26 Norte 0 1014.5 -0.4 50
2018-02-13 12:00:00 14.3 12 Noroeste 27 Norte 0 1015.1 1 53
2018-02-13 11:00:00 14 10 Noroeste 24 Noroeste 0 1014.9 1.5 54
2018-02-13 10:00:00 13 5 Noroeste 17 Noroeste 0 1014.9 1.5 53
2018-02-13 09:00:00 11.1 8 Oeste 14 Noroeste 0 1014.1 0.9 54
2018-02-13 08:00:00 9 9 Oeste 13 Oeste 0 1013.4 0.2 67
2018-02-13 07:00:00 9.3 9 Sudoeste 15 Oeste 0 1013.4 0.2 63
2018-02-13 06:00:00 9.8 8 Sudoeste 14 Oeste 0 1013.2 0.2 64
2018-02-13 05:00:00 9.7 8 Sudoeste 13 Sudoeste 0 1013.2 0.1 63
2018-02-13 04:00:00 10.6 6 Oeste 20 Oeste 0 1013.2 0 52
2018-02-13 03:00:00 11.1 5 Oeste 22 Norte 0 1013 -0.3 54
2018-02-13 02:00:00 12.1 6 Oeste 21 Oeste 0 1013.1 -0.2 63
2018-02-13 01:00:00 12.3 7 Sudoeste 17 Noroeste 0 1013.2 0.1 70
2018-02-13 00:00:00 12.2 7 Sudoeste 17 Sudoeste 0 1013.3 0.4 64
2018-02-12 23:00:00 12.2 6 Sudoeste 16 Oeste 0 1013.3 1 63
2018-02-12 22:00:00 12.5 6 Sudoeste 22 Sur 0 1013.1 1.2 67
2018-02-12 21:00:00 12.9 9 Sudoeste 28 Oeste 0 1012.9 1.5 73
2018-02-12 20:00:00 12.8 11 Oeste 34 Noroeste 0.2 1012.3 0.9 68
2018-02-12 19:00:00 13.1 5 Sudoeste 39 Noroeste 0.4 1011.9 0.6 64
2018-02-12 18:00:00 13 16 Noroeste 49 Noroeste 0.8 1011.4 -0.1 73
2018-02-12 17:00:00 13.2 9 Noroeste 39 Oeste 1.2 1011.4 -0.4 94
2018-02-12 16:00:00 13.5 9 Noroeste 41 Oeste 2.4 1011.3 -1.1 92
2018-02-12 15:00:00 15.2 17 Oeste 47 Oeste 0 1011.5 -1.4 81
2018-02-12 14:00:00 16.5 18 Oeste 44 Sudoeste 0 1011.8 -1.2 71
2018-02-12 13:00:00 14.6 12 Oeste 39 Oeste 0 1012.4 -0.3 80
2018-02-12 12:00:00 14.4 10 Oeste 38 Oeste 0 1012.9 0.7 80
2018-02-12 11:00:00 14.2 7 Oeste 22 Oeste 0 1013 1.3 80
2018-02-12 10:00:00 14.3 7 Oeste 26 Noroeste 0 1012.7 1.3 79
2018-02-12 09:00:00 14.2 6 Sudoeste 27 Sudoeste 0 1012.2 1.3 79
2018-02-12 08:00:00 14 12 Sudoeste 31 Oeste 0 1011.7 0.3 78
2018-02-12 07:00:00 13.9 14 Oeste 46 Noroeste 0 1011.4 -0.4 78
2018-02-12 06:00:00 13.9 18 Oeste 48 Noroeste 0 1010.9 -1.3 77
2018-02-12 05:00:00 13.9 10 Oeste 31 Noroeste 0 1011.4 -1.3 77
2018-02-12 04:00:00 13.6 10 Oeste 30 Sudoeste 0 1011.8 -1.3 77
2018-02-12 03:00:00 13.2 12 Sudoeste 24 Sudoeste 0 1012.2 -1.1 77
2018-02-12 02:00:00 13.2 8 Sudoeste 19 Sur 0 1012.7 -0.9 76
2018-02-12 01:00:00 13.2 5 Oeste 31 Noroeste 0 1013.1 -0.5 74
2018-02-12 00:00:00 13.3 7 Sudoeste 27 Sudoeste 0 1013.3 0.1 68
2018-02-11 23:00:00 13.2 10 Sudoeste 26 Sudoeste 0 1013.6 0.8 58
2018-02-11 22:00:00 13.2 9 Sudoeste 28 Oeste 0 1013.6 1 60
2018-02-11 21:00:00 13.3 8 Oeste 30 Noroeste 0 1013.2 1.3 54
2018-02-11 20:00:00 13.2 13 Noroeste 45 Noroeste 0 1012.8 0.9 58
2018-02-11 19:00:00 13.6 13 Oeste 40 Oeste 0 1012.6 0.4 60
2018-02-11 18:00:00 14.4 11 Oeste 33 Noroeste 0 1011.9 -0.8 55
2018-02-11 17:00:00 15.6 13 Oeste 42 Noroeste 0 1011.9 -1.7 50
2018-02-11 16:00:00 16.3 11 Oeste 38 Oeste 0 1012.2 -2.1 46
2018-02-11 15:00:00 16.6 13 Oeste 32 Oeste 0 1012.7 -2.1 49
2018-02-11 14:00:00 16.8 12 Oeste 25 Noroeste 0 1013.6 -1.2 46
2018-02-11 13:00:00 16.4 9 Oeste 24 Noroeste 0 1014.3 -0.1 48
2018-02-11 12:00:00 15.6 9 Oeste 27 Norte 0 1014.8 0.9 47
2018-02-11 11:00:00 14.5 8 Oeste 27 Oeste 0 1014.8 1.5 51
2018-02-11 10:00:00 12.6 12 Oeste 34 Oeste 0 1014.4 1.5 61
2018-02-11 09:00:00 11.4 8 Oeste 22 Noroeste 0 1013.9 1.5 61
2018-02-11 08:00:00 10.1 7 Sudoeste 12 Oeste 0 1013.3 0.7 68
2018-02-11 07:00:00 10 6 Sudoeste 10 Oeste 0 1012.9 0.6 69
2018-02-11 06:00:00 10.3 6 Oeste 15 Sudoeste 0 1012.4 -0.1 77
2018-02-11 05:00:00 9.8 3 Sur 7 Oeste 0 1012.6 0.3 79
2018-02-11 04:00:00 10 3 Sur 6 Sur 0 1012.3 0 77
2018-02-11 03:00:00 10.3 6 Sur 13 Sur 0 1012.5 -0.1 76
2018-02-11 02:00:00 12 5 Sudoeste 25 Noroeste 0 1012.3 -0.3 59
2018-02-11 01:00:00 12 10 Noroeste 30 Noroeste 0 1012.3 -0.3 60
2018-02-11 00:00:00 12.6 9 Oeste 27 Noroeste 0 1012.6 0.8 57
2018-02-10 23:00:00 12 9 Oeste 24 Noroeste 0 1012.6 1.7 63
2018-02-10 22:00:00 11.7 10 Noroeste 23 Oeste 0 1012.6 2 70
2018-02-10 21:00:00 11.5 10 Oeste 32 Oeste 0 1011.8 2.1 76
2018-02-10 20:00:00 11.4 12 Oeste 39 Oeste 0 1010.9 1.4 81
2018-02-10 19:00:00 11.6 15 Oeste 50 Noroeste 0 1010.6 0.7 78
2018-02-10 18:00:00 12.2 18 Oeste 42 Oeste 0 1009.7 -0.8 70
2018-02-10 17:00:00 13.7 15 Oeste 36 Oeste 0 1009.5 -1.1 61
2018-02-10 16:00:00 13.7 18 Oeste 45 Oeste 0 1009.9 -1.1 64
2018-02-10 15:00:00 13.7 18 Oeste 46 Noroeste 0 1010.5 -1.1 65
2018-02-10 14:00:00 14.4 16 Oeste 42 Oeste 0 1010.6 -1.2 58
2018-02-10 13:00:00 14.9 14 Oeste 33 Oeste 0 1011 -0.3 55
2018-02-10 12:00:00 14.3 17 Oeste 38 Oeste 0 1011.6 0.6 61
2018-02-10 11:00:00 13.5 16 Noroeste 33 Oeste 0 1011.8 1 61
2018-02-10 10:00:00 12.6 17 Noroeste 30 Oeste 0 1011.3 0.9 63
2018-02-10 09:00:00 11.4 14 Oeste 39 Noroeste 0 1011 0.9 73
2018-02-10 08:00:00 10.9 14 Noroeste 39 Noroeste 0 1010.8 0.7 83
2018-02-10 07:00:00 11 10 Noroeste 27 Noroeste 0 1010.4 0 83
2018-02-10 06:00:00 11.4 9 Nordeste 39 Oeste 0 1010.1 -1 88
2018-02-10 05:00:00 12.1 9 Sudoeste 24 Sudoeste 0 1010.1 -1.1 81
2018-02-10 04:00:00 11.2 6 Sudoeste 14 Oeste 0 1010.4 -1.6 87
2018-02-10 03:00:00 11.1 7 Sudoeste 12 Sudoeste 0.2 1011.1 -0.6 88
2018-02-10 02:00:00 11.3 5 Sur 17 Noroeste 0 1011.2 -0.8 90
2018-02-10 01:00:00 11.6 8 Nordeste 19 Oeste 0 1012 -0.2 87
2018-02-10 00:00:00 11.7 10 Oeste 24 Oeste 0 1011.7 -0.6 83
2018-02-09 23:00:00 11.4 6 Sur 20 Sur 0 1012 -0.1 78
2018-02-09 22:00:00 11.3 10 Sudoeste 23 Oeste 0 1012.2 0.8 76
2018-02-09 21:00:00 11.1 12 Sudoeste 23 Sudoeste 0 1012.3 1.4 77
2018-02-09 20:00:00 11.1 5 Sudoeste 32 Sudoeste 0 1012.1 1.8 74
2018-02-09 19:00:00 11.5 17 Oeste 46 Oeste 0 1011.4 0.8 67
2018-02-09 18:00:00 12.1 13 Oeste 40 Sudoeste 0 1010.9 -0.3 61
2018-02-09 17:00:00 13.4 14 Oeste 41 Oeste 0 1010.3 -1.3 54
2018-02-09 16:00:00 12.7 16 Oeste 48 Oeste 0 1010.6 -1.4 53
2018-02-09 15:00:00 12.5 8 Oeste 40 Oeste 0 1011.2 -1 53
2018-02-09 14:00:00 12.5 11 Oeste 33 Oeste 0 1011.6 -0.3 49
2018-02-09 13:00:00 12.7 10 Oeste 37 Noroeste 0 1012 0.2 40
2018-02-09 12:00:00 12.2 15 Noroeste 37 Noroeste 0 1012.2 0.9 44
2018-02-09 11:00:00 11.1 18 Noroeste 36 Noroeste 0 1011.9 1.4 45
2018-02-09 10:00:00 10.6 7 Noroeste 36 Noroeste 0 1011.8 1.6 43
2018-02-09 09:00:00 9.2 5 Oeste 21 Oeste 0 1011.3 1.4 46
2018-02-09 08:00:00 8.2 5 Oeste 34 Noroeste 0 1010.5 0.7 55
2018-02-09 07:00:00 8.8 7 Oeste 28 Noroeste 0 1010.2 0.7 51
2018-02-09 06:00:00 9.3 9 Noroeste 22 Oeste 0 1009.9 0.3 46
2018-02-09 05:00:00 9.8 13 Noroeste 28 Noroeste 0 1009.8 0.1 54
2018-02-09 04:00:00 9.6 12 Noroeste 22 Noroeste 0 1009.5 -0.3 64
2018-02-09 03:00:00 9.4 4 Sudeste 6 Sudeste 0 1009.6 -0.2 82
2018-02-09 02:00:00 9.8 4 Sudoeste 8 Sudoeste 0 1009.7 0 83
2018-02-09 01:00:00 9.7 4 Oeste 9 Noroeste 0 1009.8 0.5 78
2018-02-09 00:00:00 9.8 6 Sudoeste 11 Noroeste 0 1009.8 0.9 80
2018-02-08 23:00:00 9.7 4 Noroeste 10 Oeste 0 1009.7 1.3 90
2018-02-08 22:00:00 9.9 4 Sudoeste 8 Noroeste 0 1009.3 1.3 90
2018-02-08 21:00:00 9.7 5 Oeste 9 Oeste 0 1008.9 1.4 89
2018-02-08 20:00:00 9.8 4 Oeste 8 Oeste 0 1008.4 1.2 88
2018-02-08 19:00:00 10.3 5 Sudoeste 7 Oeste 0 1008 1.1 90
2018-02-08 18:00:00 10.9 4 Sudoeste 8 Sur 0 1007.5 0.4 87
2018-02-08 17:00:00 11 4 Sur 8 Sur 0 1007.2 0.2 83
2018-02-08 16:00:00 10.6 4 Sur 10 Norte 0.8 1006.9 -0.5 88
2018-02-08 15:00:00 9.8 8 Norte 17 Norte 0.6 1007.1 -0.5 93
2018-02-08 14:00:00 10.6 9 Norte 14 Norte 0.2 1007 0.2 94
2018-02-08 13:00:00 9.6 4 Noroeste 25 Nordeste 3 1007.4 1.1 97
2018-02-08 12:00:00 10.1 14 Nordeste 29 Nordeste 0.4 1007.6 1.9 86
2018-02-08 11:00:00 11 9 Nordeste 25 Norte 0 1006.8 1.8 88
2018-02-08 10:00:00 10.2 8 Nordeste 16 Nordeste 0 1006.3 1.6 86
2018-02-08 09:00:00 9.5 6 Este 28 Este 0 1005.7 1.3 86
2018-02-08 08:00:00 8.8 7 Oeste 17 Sur 0 1005 0.7 93
2018-02-08 07:00:00 8.7 3 Norte 27 Nordeste 2 1004.7 0.3 93
2018-02-08 06:00:00 9.9 13 Nordeste 24 Nordeste 0 1004.4 -0.1 80
2018-02-08 05:00:00 9.5 12 Nordeste 21 Nordeste 0 1004.3 -0.3 83
2018-02-08 04:00:00 8 3 Nordeste 14 Nordeste 0 1004.4 -0.3 91
2018-02-08 03:00:00 7.9 6 Oeste 22 Este 0.6 1004.5 -0.4 93
2018-02-08 02:00:00 7.7 4 Oeste 18 Sudeste 0.8 1004.6 -0.3 95
2018-02-08 01:00:00 7.6 4 Sudoeste 8 Oeste 0 1004.7 -0.3 96
2018-02-08 00:00:00 7.2 5 Oeste 8 Noroeste 0 1004.9 0.1 96
2018-02-07 23:00:00 7.6 4 Noroeste 10 Sudoeste 0.8 1004.9 0.7 97
2018-02-07 22:00:00 7.5 7 Oeste 12 Oeste 7.4 1005 1.5 96
2018-02-07 21:00:00 8.3 8 Sudoeste 25 Sur 3.2 1004.8 1.7 92
2018-02-07 20:00:00 9 9 Noroeste 15 Noroeste 0 1004.2 1.5 85
2018-02-07 19:00:00 8.9 6 Noroeste 15 Norte 0 1003.5 0.9 81
2018-02-07 18:00:00 8.8 6 Noroeste 15 Noroeste 0 1003.1 0.3 87
2018-02-07 17:00:00 8.6 10 Noroeste 23 Noroeste 0 1002.7 -0.6 88
2018-02-07 16:00:00 9.3 13 Norte 25 Noroeste 0 1002.6 -1 78
2018-02-07 15:00:00 9.2 13 Norte 21 Noroeste 0 1002.8 -1.1 84
2018-02-07 14:00:00 9.3 12 Norte 21 Norte 0 1003.3 -0.5 83
2018-02-07 13:00:00 9.5 10 Noroeste 18 Norte 0 1003.6 0.1 84
2018-02-07 12:00:00 8.9 5 Noroeste 10 Noroeste 0.4 1003.9 0.9 90
2018-02-07 11:00:00 9.1 0 Calma 5 Norte 0 1003.8 1 72
2018-02-07 10:00:00 8.4 0 Calma 9 Sur 0 1003.5 1.3 76
2018-02-07 09:00:00 8 5 Sudoeste 15 Sudoeste 0 1003 1 75
2018-02-07 08:00:00 8.4 6 Sudoeste 17 Sudoeste 0 1002.8 0.9 72
2018-02-07 07:00:00 8.8 4 Sur 13 Sudoeste 0 1002.2 -0.1 71
2018-02-07 06:00:00 9.1 6 Sur 16 Oeste 0 1002 -0.5 67
2018-02-07 05:00:00 8.8 5 Sudoeste 14 Sudoeste 0 1001.9 -0.8 67
2018-02-07 04:00:00 8.8 6 Sudoeste 15 Sudoeste 0 1002.3 -0.8 66
2018-02-07 03:00:00 8.7 5 Sudoeste 13 Sudoeste 0 1002.5 -0.7 64
2018-02-07 02:00:00 9.2 4 Sudoeste 15 Noroeste 0 1002.7 -0.7 63
2018-02-07 01:00:00 10.2 6 Oeste 18 Oeste 0 1003.1 -0.1 59
2018-02-07 00:00:00 10.3 5 Sudoeste 16 Oeste 0 1003.2 0.4 61
2018-02-06 23:00:00 9.9 9 Oeste 27 Noroeste 0 1003.4 1.2 61
2018-02-06 22:00:00 10.2 9 Oeste 28 Noroeste 0 1003.2 1.8 61
2018-02-06 21:00:00 10 14 Noroeste 39 Noroeste 0 1002.8 1.9 62
2018-02-06 20:00:00 9.9 15 Noroeste 36 Oeste 0 1002.2 1.8 64
2018-02-06 19:00:00 9.9 16 Noroeste 36 Noroeste 0 1001.4 1.1 57
2018-02-06 18:00:00 10.3 14 Noroeste 34 Noroeste 0 1000.9 0.4 60
2018-02-06 17:00:00 11.4 9 Noroeste 36 Oeste 0 1000.4 -0.2 56
2018-02-06 16:00:00 10.7 16 Noroeste 40 Noroeste 0 1000.3 -0.3 60
2018-02-06 15:00:00 10.3 18 Noroeste 44 Noroeste 0 1000.5 0.1 62
2018-02-06 14:00:00 10.8 19 Noroeste 37 Norte 0 1000.6 0.4 59
2018-02-06 13:00:00 11.5 9 Oeste 23 Noroeste 0 1000.6 0.9 52
2018-02-06 12:00:00 11.2 5 Sudoeste 26 Noroeste 0 1000.4 1.7 58
2018-02-06 11:00:00 9.9 9 Oeste 24 Oeste 0 1000.2 2.2 63
2018-02-06 10:00:00 8.4 8 Oeste 34 Oeste 0 999.7 1.9 76
2018-02-06 09:00:00 7.7 11 Oeste 31 Oeste 0 998.7 1 77
2018-02-06 08:00:00 7.9 13 Oeste 38 Oeste 0 998 0.5 77
2018-02-06 07:00:00 8 9 Oeste 24 Oeste 0 997.8 0.3 77
2018-02-06 06:00:00 6.7 10 Sudoeste 22 Sudoeste 0 997.7 0.3 81
2018-02-06 05:00:00 6.8 8 Sudoeste 26 Oeste 0 997.5 -0.1 78
2018-02-06 04:00:00 7.7 11 Oeste 30 Noroeste 0 997.5 -0.5 73
2018-02-06 03:00:00 7.9 10 Oeste 25 Oeste 0 997.4 -0.3 72
2018-02-06 02:00:00 7.1 10 Oeste 27 Oeste 0 997.6 -0.3 78
2018-02-06 01:00:00 8.1 8 Oeste 18 Oeste 0 998 0 73
2018-02-06 00:00:00 8.4 8 Sudoeste 16 Sudoeste 0 997.7 -0.4 74
2018-02-05 23:00:00 8.8 7 Oeste 24 Oeste 0 997.9 0.2 73
2018-02-05 22:00:00 9.8 4 Sudoeste 16 Norte 0 998 1 59
2018-02-05 21:00:00 10 9 Noroeste 36 Noroeste 0 998.1 1.4 58
2018-02-05 20:00:00 10.3 10 Noroeste 23 Noroeste 0 997.7 1.3 56
2018-02-05 19:00:00 10.5 8 Sudoeste 32 Oeste 0 997 0.9 62
2018-02-05 18:00:00 11 11 Oeste 34 Sudoeste 0 996.7 0.3 65
2018-02-05 17:00:00 11.8 13 Oeste 42 Sudoeste 0 996.4 -0.6 58
2018-02-05 16:00:00 13 15 Oeste 41 Oeste 0 996.1 -1.9 45
2018-02-05 15:00:00 13.1 15 Oeste 37 Oeste 0 996.4 -2 55
2018-02-05 14:00:00 12.8 12 Oeste 36 Oeste 0 997 -1.1 56
2018-02-05 13:00:00 12.1 12 Oeste 33 Sudoeste 0 998 0.1 57
2018-02-05 12:00:00 11.4 13 Oeste 30 Sudoeste 0 998.4 0.8 60
2018-02-05 11:00:00 10.3 14 Oeste 34 Sudoeste 0 998.1 1.1 67
2018-02-05 10:00:00 9.5 13 Oeste 30 Oeste 0 997.9 1.2 70
2018-02-05 09:00:00 8 7 Oeste 21 Sudoeste 0 997.6 1 75
2018-02-05 08:00:00 8.1 8 Oeste 21 Oeste 0 997 0.1 72
2018-02-05 07:00:00 7.6 5 Sur 14 Sudoeste 0 996.7 -0.3 74
2018-02-05 06:00:00 7.6 7 Sudoeste 22 Sudoeste 0 996.6 -0.8 74
2018-02-05 05:00:00 8 7 Sudoeste 13 Oeste 0 996.9 -0.8 72
2018-02-05 04:00:00 7.8 6 Sudoeste 14 Oeste 0 997 -1.1 73
2018-02-05 03:00:00 7.6 8 Sudoeste 13 Sudoeste 0 997.4 -0.8 71
2018-02-05 02:00:00 7.7 8 Oeste 16 Oeste 0 997.7 -1 69
2018-02-05 01:00:00 8 8 Oeste 14 Oeste 0 998.1 -0.6 75
2018-02-05 00:00:00 7.6 8 Oeste 16 Noroeste 0 998.2 -0.5 76
2018-02-04 23:00:00 7.6 7 Oeste 24 Noroeste 0 998.7 0.2 76
2018-02-04 22:00:00 7.1 9 Oeste 17 Noroeste 0 998.7 0.6 81
2018-02-04 21:00:00 7 5 Sur 22 Noroeste 0 998.7 0.8 84
2018-02-04 20:00:00 6.9 5 Oeste 44 Noroeste 1 998.5 -0.1 90
2018-02-04 19:00:00 8.1 8 Sudoeste 19 Oeste 0 998.1 -0.7 86
2018-02-04 18:00:00 7.8 7 Sur 25 Sudoeste 2.2 997.9 -1.9 90
2018-02-04 17:00:00 8 4 Sudoeste 8 Sur 0.4 998.6 -1.1 96
2018-02-04 16:00:00 7.8 4 Este 18 Noroeste 2.6 998.8 -2.2 95
2018-02-04 15:00:00 6.5 13 Noroeste 44 Noroeste 5.6 999.8 -2.3 95
2018-02-04 14:00:00 10.3 10 Sur 25 Sur 0.2 999.7 -3.2 83
2018-02-04 13:00:00 10.2 15 Sur 26 Sur 0 1001 -2.1 82
2018-02-04 12:00:00 10.1 10 Sur 22 Sur 0 1002.1 -1 85
2018-02-04 11:00:00 9.4 8 Sur 21 Sudoeste 0.2 1002.9 -0.2 87
2018-02-04 10:00:00 8.7 11 Sudoeste 38 Sudoeste 0.4 1003.1 -0.1 87
2018-02-04 09:00:00 8.9 19 Sudoeste 46 Sudoeste 2.6 1003.1 -0.9 83
2018-02-04 08:00:00 9.2 12 Sudoeste 41 Sudoeste 1.6 1003.1 -1.9 78
2018-02-04 07:00:00 11.1 14 Sudoeste 37 Oeste 0 1003.2 -2.6 59
2018-02-04 06:00:00 10.9 14 Sudoeste 31 Sudoeste 0 1004 -3 59
2018-02-04 05:00:00 10.9 7 Sur 46 Sudoeste 0 1005 -2.7 58
2018-02-04 04:00:00 11.1 10 Sudoeste 39 Noroeste 0 1005.8 -2.6 59
2018-02-04 03:00:00 11.2 8 Oeste 24 Noroeste 0 1007 -1.7 54
2018-02-04 02:00:00 10.9 9 Sudoeste 27 Noroeste 0 1007.7 -1.6 54
2018-02-04 01:00:00 10.8 8 Oeste 25 Oeste 0 1008.4 -1.5 54
2018-02-04 00:00:00 10.7 11 Oeste 27 Norte 0 1008.7 -1.4 58
2018-02-03 23:00:00 10.5 7 Oeste 22 Oeste 0 1009.3 -0.8 57
2018-02-03 22:00:00 10.4 6 Oeste 19 Noroeste 0 1009.9 0.5 54
2018-02-03 21:00:00 10.6 6 Oeste 25 Sudoeste 0 1010.1 0.9 52
2018-02-03 20:00:00 10.4 7 Oeste 18 Noroeste 0 1010.1 0.9 53
2018-02-03 19:00:00 11.2 8 Oeste 25 Noroeste 0 1009.4 0.3 49
2018-02-03 18:00:00 12.1 8 Noroeste 24 Oeste 0 1009.2 -0.3 48
2018-02-03 17:00:00 14.1 9 Oeste 30 Sudoeste 0 1009.2 -1 38
2018-02-03 16:00:00 14.4 12 Oeste 30 Sudoeste 0 1009.1 -1.9 37
2018-02-03 15:00:00 15 7 Noroeste 23 Oeste 0 1009.5 -2.2 34
2018-02-03 14:00:00 14.7 9 Noroeste 32 Noroeste 0 1010.2 -1.3 36
2018-02-03 13:00:00 14.3 14 Noroeste 27 Noroeste 0 1011 -0.1 30
2018-02-03 12:00:00 14.1 14 Noroeste 28 Noroeste 0 1011.7 0.9 31
2018-02-03 11:00:00 13.1 10 Noroeste 23 Noroeste 0 1011.5 1.2 34
2018-02-03 10:00:00 11.7 4 Oeste 20 Noroeste 0 1011.1 1.5 43
2018-02-03 09:00:00 9.7 9 Noroeste 18 Noroeste 0 1010.8 1.5 56
2018-02-03 08:00:00 8.5 12 Noroeste 19 Noroeste 0 1010.3 1 54
2018-02-03 07:00:00 7.7 7 Noroeste 15 Noroeste 0 1009.6 0.1 57
2018-02-03 06:00:00 7.7 6 Noroeste 13 Noroeste 0 1009.3 0.2 56
2018-02-03 05:00:00 8.4 9 Noroeste 17 Noroeste 0 1009.3 0.4 56
2018-02-03 04:00:00 8.7 10 Noroeste 19 Noroeste 0 1009.5 0.6 55
2018-02-03 03:00:00 9.5 10 Noroeste 21 Noroeste 0 1009.1 0.5 48
2018-02-03 02:00:00 9.7 12 Noroeste 25 Oeste 0 1008.9 0.3 48
2018-02-03 01:00:00 9.8 12 Noroeste 25 Oeste 0 1008.9 0.9 50
2018-02-03 00:00:00 9.7 10 Noroeste 24 Noroeste 0 1008.6 1.6 53
2018-02-02 23:00:00 10.2 14 Noroeste 23 Noroeste 0 1008.6 2.2 51
2018-02-02 22:00:00 10.6 13 Noroeste 28 Noroeste 0 1008 2.9 49
2018-02-02 21:00:00 10.4 15 Noroeste 27 Noroeste 0 1007 2.6 48
2018-02-02 20:00:00 10.9 15 Noroeste 30 Norte 0 1006.4 3 44
2018-02-02 19:00:00 11.1 17 Noroeste 37 Noroeste 0 1005.1 1.8 47
2018-02-02 18:00:00 11.4 18 Noroeste 41 Noroeste 0 1004.4 1.3 50
2018-02-02 17:00:00 11.9 17 Oeste 42 Oeste 0 1003.4 -0.1 58
2018-02-02 16:00:00 12.5 12 Oeste 35 Oeste 0 1003.3 -0.7 52
2018-02-02 15:00:00 12.6 12 Sudoeste 33 Sudoeste 0 1003.1 -1.2 50
2018-02-02 14:00:00 12.4 11 Sudoeste 29 Noroeste 0 1003.5 -0.2 52
2018-02-02 13:00:00 11.8 12 Oeste 39 Noroeste 0 1004 0.5 55
2018-02-02 12:00:00 11.2 12 Sudoeste 28 Sudoeste 0 1004.3 1.8 54
2018-02-02 11:00:00 11 10 Oeste 28 Noroeste 0 1003.7 2.2 55
2018-02-02 10:00:00 9.8 10 Noroeste 32 Noroeste 0 1003.5 2.8 59
2018-02-02 09:00:00 8.5 14 Noroeste 39 Noroeste 0 1002.5 2.6 64
2018-02-02 08:00:00 8.4 22 Oeste 43 Noroeste 0 1001.5 1.7 64
2018-02-02 07:00:00 8.8 21 Noroeste 45 Noroeste 0 1000.7 1 64
2018-02-02 06:00:00 9.2 18 Noroeste 38 Noroeste 0 999.9 0.4 60
2018-02-02 05:00:00 9.5 14 Noroeste 37 Noroeste 0 999.8 0.8 64
2018-02-02 04:00:00 10.2 18 Noroeste 41 Oeste 0 999.7 0.3 62
2018-02-02 03:00:00 10.7 13 Oeste 38 Oeste 0 999.5 0.4 61
2018-02-02 02:00:00 10.8 22 Noroeste 50 Oeste 0 999 -1.3 67
2018-02-02 01:00:00 11.5 27 Noroeste 48 Noroeste 0 999.4 -1.3 68
2018-02-02 00:00:00 11.3 15 Noroeste 44 Oeste 0.4 999.1 -1.8 77
2018-02-01 23:00:00 11.4 18 Noroeste 31 Noroeste 2.6 1000.3 -0.2 91
2018-02-01 22:00:00 13.1 10 Oeste 37 Oeste 0.4 1000.7 0.6 76
2018-02-01 21:00:00 13.6 12 Oeste 45 Sudoeste 0 1000.9 0.6 69
2018-02-01 20:00:00 14 12 Oeste 41 Oeste 0 1000.5 -1.1 77
2018-02-01 19:00:00 14.2 13 Oeste 36 Oeste 0 1000.1 -1.6 75
2018-02-01 18:00:00 14.7 12 Oeste 32 Oeste 0 1000.3 -2.5 72
2018-02-01 17:00:00 15.5 8 Sudoeste 44 Oeste 0 1001.6 -2.7 68
2018-02-01 16:00:00 15.5 14 Oeste 37 Oeste 0 1001.7 -3.6 67
2018-02-01 15:00:00 16.3 11 Sudoeste 38 Sudoeste 0 1002.8 -3.1 66
2018-02-01 14:00:00 16.7 11 Sudoeste 38 Oeste 0 1004.3 -2.1 63
2018-02-01 13:00:00 16.6 9 Sudoeste 26 Sudoeste 0 1005.3 -0.9 60
2018-02-01 12:00:00 15.8 9 Oeste 30 Noroeste 0 1005.9 -0.5 62
2018-02-01 11:00:00 14.8 12 Oeste 27 Noroeste 0 1006.4 -0.2 66
2018-02-01 10:00:00 13.4 8 Oeste 25 Oeste 0 1006.2 -0.3 72
2018-02-01 09:00:00 12 6 Oeste 16 Noroeste 0 1006.4 0.2 79
2018-02-01 08:00:00 11.4 4 Sudoeste 10 Oeste 0 1006.6 0.1 93
2018-02-01 07:00:00 11.6 4 Sudoeste 9 Oeste 0 1006.5 -0.3 95
2018-02-01 06:00:00 11.9 3 Oeste 8 Norte 0 1006.2 -0.6 95
2018-02-01 05:00:00 12.4 5 Noroeste 14 Norte 0 1006.5 -0.6 96
2018-02-01 04:00:00 12.8 8 Norte 14 Noroeste 0 1006.8 -1.1 95
2018-02-01 03:00:00 12.7 3 Noroeste 19 Este 0 1006.8 -1.3 95
2018-02-01 02:00:00 13.1 11 Este 27 Este 0 1007.1 -1.1 95
2018-02-01 01:00:00 13.1 13 Nordeste 28 Nordeste 0 1007.9 -0.3 95
2018-02-01 00:00:00 13.3 15 Nordeste 28 Nordeste 0 1008.1 -0.5 97
2018-01-31 23:00:00 13.2 14 Nordeste 28 Nordeste 0 1008.2 -0.1 97
2018-01-31 22:00:00 13 14 Nordeste 24 Nordeste 2.4 1008.2 0.4 97
2018-01-31 21:00:00 13.2 13 Este 27 Este 2.4 1008.6 1.1 98
2018-01-31 20:00:00 13.4 15 Este 36 Este 1 1008.3 0.7 97
2018-01-31 19:00:00 13.9 20 Este 37 Este 0 1007.8 0.1 91
2018-01-31 18:00:00 14 19 Este 36 Este 0 1007.5 -1.2 90
2018-01-31 17:00:00 14 17 Este 33 Este 0 1007.6 -1.9 90
2018-01-31 16:00:00 14 18 Este 36 Este 0 1007.7 -3.1 89
2018-01-31 15:00:00 14.1 20 Este 39 Este 0 1008.7 -3.1 89
2018-01-31 14:00:00 14.3 23 Este 39 Este 0 1009.5 -2.7 87
2018-01-31 13:00:00 14.4 22 Este 40 Este 0 1010.8 -1.3 87
2018-01-31 12:00:00 14 22 Este 36 Este 0 1011.8 -0.2 90
2018-01-31 11:00:00 13.9 16 Este 35 Este 0 1012.2 0.7 89
2018-01-31 10:00:00 13.6 16 Este 38 Este 0.2 1012.1 1 91
2018-01-31 09:00:00 13.8 21 Este 40 Este 0 1012 0.8 85
2018-01-31 08:00:00 13.9 19 Este 41 Nordeste 0 1011.5 0.1 85
2018-01-31 07:00:00 14 23 Este 43 Este 0 1011.1 -0.8 84
2018-01-31 06:00:00 13.9 18 Este 39 Este 0 1011.2 -0.8 86
2018-01-31 05:00:00 13.7 20 Este 42 Este 0.2 1011.4 -1 88
2018-01-31 04:00:00 13.9 18 Este 39 Este 0 1011.9 0 89
2018-01-31 03:00:00 14.2 19 Este 34 Sudeste 0 1012 -1 85
2018-01-31 02:00:00 14.1 19 Este 45 Este 0 1012.4 -0.9 84
2018-01-31 01:00:00 14.1 19 Este 44 Este 0 1011.9 -1.2 85
2018-01-31 00:00:00 14.2 19 Este 40 Este 0 1013 0.2 83
2018-01-30 23:00:00 14.2 19 Este 37 Sudeste 0 1013.3 0.8 80
2018-01-30 22:00:00 14.2 22 Sudeste 46 Este 0 1013.1 0.7 79
2018-01-30 21:00:00 14.2 26 Este 44 Este 0 1012.8 0.5 80
2018-01-30 20:00:00 14.3 20 Sudeste 35 Este 0 1012.5 -0.1 81
2018-01-30 19:00:00 14.2 23 Sudeste 39 Este 0 1012.4 -0.6 82
2018-01-30 18:00:00 14.2 24 Este 42 Este 0 1012.3 -1.2 81
2018-01-30 17:00:00 14.3 20 Este 36 Este 0 1012.6 -1.6 82
2018-01-30 16:00:00 14.4 24 Este 39 Sudeste 0 1013 -2 82
2018-01-30 15:00:00 14.3 21 Este 44 Este 0 1013.5 -2.3 86
2018-01-30 14:00:00 14.4 27 Este 42 Sudeste 0 1014.2 -1.7 86
2018-01-30 13:00:00 14.8 24 Este 44 Este 0 1015 -0.6 84
2018-01-30 12:00:00 14.5 27 Este 45 Este 0 1015.8 0.6 86
2018-01-30 11:00:00 14.2 22 Este 45 Este 0 1015.9 0.8 88
2018-01-30 10:00:00 14 22 Este 44 Este 0 1015.6 1.4 89
2018-01-30 09:00:00 13.9 21 Este 45 Este 0 1015.2 0.9 91
2018-01-30 08:00:00 14.2 25 Este 50 Este 0 1015.1 0.4 86
2018-01-30 07:00:00 14.1 23 Este 53 Este 0 1014.2 -1.1 87
2018-01-30 06:00:00 14.2 25 Este 47 Este 0 1014.3 -1.1 87
2018-01-30 05:00:00 14.2 26 Este 44 Este 0 1014.7 -1.4 87
2018-01-30 04:00:00 14.2 26 Este 54 Este 0 1015.3 -1.2 86
2018-01-30 03:00:00 14.1 23 Este 46 Este 0 1015.4 -1.4 86
2018-01-30 02:00:00 13.9 25 Este 47 Este 0.2 1016.1 -0.7 89
2018-01-30 01:00:00 14.4 22 Este 49 Este 0 1016.5 -0.3 87
2018-01-30 00:00:00 14.4 29 Este 49 Este 0 1016.8 0.3 84
2018-01-29 23:00:00 14.2 25 Este 45 Este 0 1016.8 0.7 86
2018-01-29 22:00:00 14.2 25 Sudeste 45 Este 0 1016.8 1.1 87
2018-01-29 21:00:00 14.5 28 Sudeste 54 Este 0 1016.5 0.9 83
2018-01-29 20:00:00 14.5 31 Sudeste 57 Sudeste 0 1016.1 1.2 81
2018-01-29 19:00:00 14.5 27 Sudeste 53 Sudeste 0 1015.7 1 81
2018-01-29 18:00:00 14.5 28 Este 67 Este 0 1015.6 0.9 80
2018-01-29 17:00:00 14.7 34 Este 75 Este 0 1014.9 -0.3 83
2018-01-29 16:00:00 14.9 43 Este 68 Este 0 1014.7 -0.9 78
2018-01-29 15:00:00 14.9 36 Este 70 Este 0 1014.7 -1.6 79
2018-01-29 14:00:00 15 35 Este 80 Sudeste 0 1015.2 -1.2 79
2018-01-29 13:00:00 14.8 36 Este 76 Este 0 1015.6 -1.1 81
2018-01-29 12:00:00 14.7 39 Este 81 Este 0 1016.3 0 81
2018-01-29 11:00:00 14.6 34 Este 70 Este 0 1016.4 0.2 81
2018-01-29 10:00:00 14.4 34 Este 64 Este 0 1016.7 1 82
2018-01-29 09:00:00 14.4 32 Este 57 Este 0 1016.3 0.7 84
2018-01-29 08:00:00 14.4 32 Este 60 Este 0 1016.2 0.6 84
2018-01-29 07:00:00 14.2 31 Este 56 Este 0.2 1015.7 0.2 87
2018-01-29 06:00:00 14.3 33 Este 63 Este 0 1015.6 0.5 86
2018-01-29 05:00:00 14.5 38 Este 67 Este 0 1015.6 0.1 83
2018-01-29 04:00:00 14.5 40 Este 64 Este 0 1015.5 -0.2 82
2018-01-29 03:00:00 14.4 32 Este 64 Este 0 1015.1 -1 81
2018-01-29 02:00:00 14.1 32 Este 67 Este 0 1015.5 -1.4 82
2018-01-29 01:00:00 13.6 30 Este 62 Este 0.2 1015.7 -1.4 80
2018-01-29 00:00:00 12.2 15 Este 52 Este 0.4 1016.1 -0.8 94
2018-01-28 23:00:00 13.3 33 Este 59 Este 0 1016.9 0.1 71
2018-01-28 22:00:00 13 32 Este 57 Este 0 1017.1 0.9 70
2018-01-28 21:00:00 12.8 29 Este 60 Este 0 1016.9 1.1 72
2018-01-28 20:00:00 12.4 34 Este 61 Este 0 1016.8 1.8 72
2018-01-28 19:00:00 11.9 27 Este 56 Este 0.2 1016.2 3.1 73
2018-01-28 18:00:00 10.9 21 Este 35 Este 0 1015.8 1.8 83
2018-01-28 17:00:00 10.8 14 Este 23 Sur 0 1015 -0.6 82
2018-01-28 16:00:00 9.4 13 Sur 20 Sur 4.6 1013.1 -2.2 96
2018-01-28 15:00:00 9 8 Este 32 Sudeste 4.2 1014 -1.7 92
2018-01-28 14:00:00 8.3 18 Este 55 Este 3.2 1015.6 0.9 85
2018-01-28 13:00:00 9.9 14 Sur 32 Sudeste 0.8 1015.3 1.1 84
2018-01-28 12:00:00 11.2 18 Sudeste 40 Sudeste 0 1015.7 1.9 79
2018-01-28 11:00:00 12.4 7 Este 14 Este 0 1014.7 1.4 60
2018-01-28 10:00:00 10 5 Noroeste 7 Noroeste 0 1014.2 1.1 70
2018-01-28 09:00:00 9.3 4 Oeste 10 Sur 0 1013.8 0.6 69
2018-01-28 08:00:00 10.4 4 Sudoeste 24 Noroeste 0 1013.3 -0.3 64
2018-01-28 07:00:00 9.8 8 Noroeste 17 Noroeste 0 1013.1 -1.5 77
2018-01-28 06:00:00 9.2 2 Nordeste 14 Noroeste 0 1013.2 -2 70
2018-01-28 05:00:00 9.4 9 Noroeste 15 Noroeste 0 1013.6 -1.7 70
2018-01-28 04:00:00 9.8 9 Noroeste 21 Noroeste 0 1014.6 -1 73
2018-01-28 03:00:00 9.8 9 Noroeste 16 Noroeste 0 1015.2 -1 79
2018-01-28 02:00:00 10.5 4 Nordeste 14 Nordeste 0 1015.3 -1.1 71
2018-01-28 01:00:00 10.5 2 Noroeste 10 Este 0 1015.6 -0.5 66
2018-01-28 00:00:00 10.7 4 Este 8 Este 0 1016.2 0.3 67
2018-01-27 23:00:00 10.1 4 Oeste 6 Oeste 0 1016.4 0.7 70
2018-01-27 22:00:00 10.8 0 Calma 12 Nordeste 0 1016.1 0.6 65
2018-01-27 21:00:00 12 6 Nordeste 23 Nordeste 0 1015.9 1.2 58
2018-01-27 20:00:00 12.3 12 Nordeste 29 Nordeste 0 1015.7 1.1 53
2018-01-27 19:00:00 12.4 12 Este 26 Nordeste 0 1015.5 0.7 56
2018-01-27 18:00:00 13 13 Nordeste 26 Nordeste 0 1014.7 -0.4 45
2018-01-27 17:00:00 13.5 12 Nordeste 23 Norte 0 1014.6 -0.8 42
2018-01-27 16:00:00 13.7 10 Nordeste 19 Nordeste 0 1014.8 -1.3 42
2018-01-27 15:00:00 13.9 11 Nordeste 19 Este 0 1015.1 -1.5 37
2018-01-27 14:00:00 14.6 5 Nordeste 17 Noroeste 0 1015.4 -1.6 36
2018-01-27 13:00:00 13.8 7 Norte 23 Noroeste 0 1016.1 -0.6 42
2018-01-27 12:00:00 12.9 13 Norte 33 Norte 0 1016.6 0.2 45
2018-01-27 11:00:00 12.5 12 Noroeste 26 Noroeste 0 1017 0.7 52
2018-01-27 10:00:00 11.3 15 Noroeste 32 Noroeste 0 1016.7 0.7 53
2018-01-27 09:00:00 9.8 15 Noroeste 26 Noroeste 0 1016.4 0.7 62
2018-01-27 08:00:00 9.5 13 Noroeste 23 Noroeste 0 1016.3 0.5 59
2018-01-27 07:00:00 8.8 8 Noroeste 16 Noroeste 0 1016 -0.1 61
2018-01-27 06:00:00 10.2 10 Noroeste 24 Noroeste 0 1015.7 -0.8 55
2018-01-27 05:00:00 10.1 13 Noroeste 20 Noroeste 0 1015.8 -1.3 57
2018-01-27 04:00:00 10.4 13 Noroeste 25 Noroeste 0 1016.1 -1.2 60
2018-01-27 03:00:00 10.5 14 Noroeste 31 Noroeste 0 1016.5 -0.7 65
2018-01-27 02:00:00 10.8 14 Noroeste 28 Oeste 0 1017.1 -0.1 63
2018-01-27 01:00:00 11.3 17 Noroeste 34 Noroeste 0 1017.3 0.3 60
2018-01-27 00:00:00 11.4 17 Noroeste 31 Noroeste 0 1017.2 0.3 57
2018-01-26 23:00:00 11.4 12 Noroeste 36 Noroeste 0 1017.2 0.5 58
2018-01-26 22:00:00 11.4 18 Noroeste 38 Noroeste 0 1017 1.1 61
2018-01-26 21:00:00 11.2 24 Noroeste 45 Oeste 0 1016.9 1.2 64
2018-01-26 20:00:00 11.4 21 Noroeste 47 Noroeste 0 1016.7 1.7 60
2018-01-26 19:00:00 11.4 19 Noroeste 44 Noroeste 0 1015.9 1 60
2018-01-26 18:00:00 11.8 11 Noroeste 30 Noroeste 0 1015.7 0.2 62
2018-01-26 17:00:00 13.3 9 Oeste 26 Noroeste 0 1015 -0.9 57
2018-01-26 16:00:00 13.5 16 Noroeste 37 Noroeste 0 1014.9 -1.5 57
2018-01-26 15:00:00 13.4 18 Noroeste 54 Noroeste 0 1015.5 -0.6 51
2018-01-26 14:00:00 13.5 17 Noroeste 45 Noroeste 0 1015.9 -0.1 47
2018-01-26 13:00:00 13.7 14 Noroeste 39 Noroeste 0 1016.4 0.8 43
2018-01-26 12:00:00 12.9 17 Noroeste 47 Noroeste 0 1016.1 0.6 44
2018-01-26 11:00:00 12 14 Noroeste 33 Noroeste 0 1016 1.6 49
2018-01-26 10:00:00 10.1 11 Oeste 33 Noroeste 0 1015.6 1.8 61
2018-01-26 09:00:00 9.7 14 Noroeste 44 Noroeste 0 1015.5 2 62
2018-01-26 08:00:00 9 18 Noroeste 40 Noroeste 0 1014.4 1 64
2018-01-26 07:00:00 8.8 21 Noroeste 44 Oeste 0 1013.8 0.6 69
2018-01-26 06:00:00 9.2 9 Oeste 43 Noroeste 0 1013.5 0.4 65
2018-01-26 05:00:00 9.8 19 Noroeste 40 Noroeste 0 1013.4 0.4 60
2018-01-26 04:00:00 9.4 21 Noroeste 43 Noroeste 0 1013.2 0.5 74
2018-01-26 03:00:00 9.6 23 Noroeste 42 Noroeste 0 1013.1 0.5 79
2018-01-26 02:00:00 10.6 20 Noroeste 57 Noroeste 0 1013 0.5 79
2018-01-26 01:00:00 11.2 26 Noroeste 48 Noroeste 0.8 1012.7 0.1 85
2018-01-26 00:00:00 11.2 18 Oeste 48 Noroeste 3.4 1012.6 0.4 85
2018-01-25 23:00:00 11.2 22 Noroeste 51 Noroeste 2 1012.5 0.7 92
2018-01-25 22:00:00 11.4 21 Noroeste 44 Noroeste 2.6 1012.6 0.6 91
2018-01-25 21:00:00 12.9 15 Sudoeste 43 Sudoeste 0 1012.2 0.6 84
2018-01-25 20:00:00 13.5 15 Sudoeste 42 Oeste 0 1011.8 0.1 78
2018-01-25 19:00:00 14.4 9 Sudoeste 30 Oeste 0 1012 -0.1 74
2018-01-25 18:00:00 14.6 15 Oeste 43 Sudoeste 0 1011.6 -0.8 71
2018-01-25 17:00:00 15.4 11 Sudoeste 35 Sudoeste 0 1011.7 -1.5 68
2018-01-25 16:00:00 16.5 11 Oeste 34 Sudoeste 0 1012.1 -1.7 64
2018-01-25 15:00:00 15.9 15 Sudoeste 36 Sudoeste 0 1012.4 -2.1 67
2018-01-25 14:00:00 15.6 14 Sudoeste 31 Sudoeste 0 1013.2 -1.5 68
2018-01-25 13:00:00 17.1 11 Sudoeste 30 Oeste 0 1013.8 -0.6 62
2018-01-25 12:00:00 15.9 6 Sudoeste 16 Sudoeste 0 1014.5 0.2 69
2018-01-25 11:00:00 15 4 Sudoeste 14 Sudoeste 0 1014.7 0.5 72
2018-01-25 10:00:00 14.5 5 Sur 9 Sur 0 1014.4 0.4 76
2018-01-25 09:00:00 13.6 4 Sudoeste 15 Sudoeste 0 1014.3 0.4 79
2018-01-25 08:00:00 13.3 5 Sudoeste 12 Oeste 0 1014.2 0 80
2018-01-25 07:00:00 12.7 5 Sudoeste 12 Sudoeste 0 1014 -0.6 82
2018-01-25 06:00:00 12.8 4 Sudoeste 9 Oeste 0 1013.9 -1.1 82
2018-01-25 05:00:00 13.3 5 Oeste 17 Oeste 0 1014.2 -1.1 80
2018-01-25 04:00:00 13.2 3 Sudoeste 5 Sudoeste 0 1014.6 -1 85
2018-01-25 03:00:00 13.2 2 Sudoeste 9 Sudoeste 0 1015 -0.9 85
2018-01-25 02:00:00 13.2 4 Oeste 8 Oeste 0 1015.3 -0.6 84
2018-01-25 01:00:00 13.4 4 Norte 7 Sudeste 0 1015.6 0 83
2018-01-25 00:00:00 13.6 3 Sur 10 Sudeste 0 1015.9 0.4 80
2018-01-24 23:00:00 13.7 0 Calma 12 Sudeste 0 1015.9 0.1 82
2018-01-24 22:00:00 13.8 5 Sudeste 12 Sur 0 1015.6 0 82
2018-01-24 21:00:00 13.8 5 Sudeste 10 Sudeste 0 1015.5 0.1 82
2018-01-24 20:00:00 14.1 6 Sudeste 14 Sudeste 0 1015.8 0.5 80
2018-01-24 19:00:00 14.2 6 Este 13 Este 0 1015.6 0.3 80
2018-01-24 18:00:00 14.5 6 Sur 17 Este 0 1015.4 -0.2 78
2018-01-24 17:00:00 14.8 12 Este 22 Este 0 1015.3 -1 81
2018-01-24 16:00:00 15.4 13 Este 23 Este 0 1015.3 -2 78
2018-01-24 15:00:00 15.7 13 Este 23 Este 0 1015.6 -2.3 79
2018-01-24 14:00:00 15.5 16 Este 24 Este 0 1016.3 -1.7 83
2018-01-24 13:00:00 16 14 Este 23 Este 0 1017.3 -0.1 74
2018-01-24 12:00:00 15.4 11 Este 18 Nordeste 0 1017.9 1 82
2018-01-24 11:00:00 14.4 10 Este 17 Este 0 1018 1.3 88
2018-01-24 10:00:00 14 8 Este 16 Este 0 1017.4 1 92
2018-01-24 09:00:00 13.3 8 Nordeste 16 Nordeste 0 1016.9 0.9 96
2018-01-24 08:00:00 13.3 10 Nordeste 17 Nordeste 0 1016.7 0.6 97
2018-01-24 07:00:00 13.7 6 Nordeste 13 Este 0 1016.4 0.2 97
2018-01-24 06:00:00 14.2 5 Sudeste 17 Este 0 1016 -0.4 89
2018-01-24 05:00:00 14.2 9 Sudeste 18 Sur 0 1016.1 -0.4 91
2018-01-24 04:00:00 13.9 5 Sudeste 9 Sudeste 0 1016.2 -0.7 98
2018-01-24 03:00:00 13.5 5 Sur 11 Sur 0 1016.4 -0.6 97
2018-01-24 02:00:00 13.7 8 Sur 11 Sur 0 1016.5 -0.3 96
2018-01-24 01:00:00 13.8 5 Sur 8 Sur 0 1016.9 0.3 95
2018-01-24 00:00:00 13.7 5 Sudoeste 10 Sudoeste 0 1017 0.4 97
2018-01-23 23:00:00 13.8 7 Sudoeste 11 Sudoeste 0 1016.8 0.3 95
2018-01-23 22:00:00 13.3 5 Sur 8 Sudoeste 0 1016.6 0.6 90
2018-01-23 21:00:00 14 5 Sudoeste 12 Sudoeste 0 1016.6 1.1 89
2018-01-23 20:00:00 14.3 7 Sudoeste 12 Sur 0 1016.5 1.3 89
2018-01-23 19:00:00 15.1 6 Sur 15 Sur 0 1016 0.8 84
2018-01-23 18:00:00 15.9 10 Sur 21 Sur 0 1015.5 0.3 83
2018-01-23 17:00:00 19 8 Sur 15 Sur 0 1015.2 -0.5 65
2018-01-23 16:00:00 19.3 7 Sur 17 Sur 0 1015.2 -1.2 62
2018-01-23 15:00:00 19.3 6 Sudeste 15 Sudeste 0 1015.2 -1.6 63
2018-01-23 14:00:00 19 7 Sudeste 14 Sudeste 0 1015.7 -0.8 63
2018-01-23 13:00:00 19 8 Sudeste 13 Sudeste 0 1016.4 0.4 64
2018-01-23 12:00:00 18 5 Este 10 Este 0 1016.8 1.3 68
2018-01-23 11:00:00 17.3 5 Sudeste 9 Sudeste 0 1016.5 1.4 71
2018-01-23 10:00:00 15.2 4 Norte 5 Norte 0 1016 1.4 81
2018-01-23 09:00:00 13.1 3 Oeste 10 Sudoeste 0 1015.5 1.1 84
2018-01-23 08:00:00 12.7 4 Sudoeste 8 Oeste 0 1015.1 0.8 83
2018-01-23 07:00:00 12.8 3 Noroeste 9 Sudoeste 0 1014.6 0.1 79
2018-01-23 06:00:00 13.5 5 Oeste 9 Oeste 0 1014.4 -0.1 75
2018-01-23 05:00:00 13.3 5 Oeste 9 Sudoeste 0 1014.3 -0.4 76
2018-01-23 04:00:00 13.7 6 Sudoeste 8 Sudoeste 0 1014.5 -0.6 75
2018-01-23 03:00:00 13.6 4 Noroeste 11 Oeste 0 1014.5 -1 76
2018-01-23 02:00:00 13.8 7 Sudoeste 10 Oeste 0 1014.7 -0.8 76
2018-01-23 01:00:00 14 6 Sudoeste 10 Oeste 0 1015.1 -0.4 76
2018-01-23 00:00:00 13.3 4 Sudoeste 6 Sudoeste 0 1015.5 -0.1 81
2018-01-22 23:00:00 14 4 Oeste 7 Sudoeste 0 1015.5 -0.2 76
2018-01-22 22:00:00 14.2 5 Oeste 9 Oeste 0 1015.5 0.3 73
2018-01-22 21:00:00 14.3 2 Sudoeste 5 Oeste 0 1015.6 0.6 76
2018-01-22 20:00:00 14.6 2 Oeste 7 Oeste 0 1015.7 0.9 72
2018-01-22 19:00:00 15.5 2 Sudeste 10 Oeste 0 1015.2 0.5 73
2018-01-22 18:00:00 17.4 3 Noroeste 10 Sur 0 1015 -0.1 66
2018-01-22 17:00:00 20 8 Sudeste 13 Sudeste 0 1014.8 -1.1 58
2018-01-22 16:00:00 21.3 4 Oeste 15 Oeste 0 1014.7 -2 52
2018-01-22 15:00:00 20.8 4 Oeste 20 Sudoeste 0 1015.1 -2.3 55
2018-01-22 14:00:00 20.3 5 Nordeste 14 Sudoeste 0 1015.9 -1.6 60
2018-01-22 13:00:00 19.4 8 Este 12 Este 0 1016.7 -0.3 63
2018-01-22 12:00:00 18.3 8 Nordeste 13 Este 0 1017.4 0.6 65
2018-01-22 11:00:00 18.4 4 Este 15 Oeste 0 1017.5 1.2 62
2018-01-22 10:00:00 17 7 Oeste 17 Noroeste 0 1017 0.7 66
2018-01-22 09:00:00 15.1 6 Sudoeste 15 Sudoeste 0 1016.8 1 71
2018-01-22 08:00:00 14.5 8 Sudoeste 13 Sudoeste 0 1016.3 0.5 70
2018-01-22 07:00:00 14.6 6 Sudoeste 22 Oeste 0 1016.3 0.2 71
2018-01-22 06:00:00 14.8 7 Oeste 18 Oeste 0 1015.8 -0.5 70
2018-01-22 05:00:00 15 8 Sudoeste 19 Oeste 0 1015.8 -0.9 69
2018-01-22 04:00:00 14.7 7 Sudoeste 16 Noroeste 0 1016.1 -1 70
2018-01-22 03:00:00 15.1 8 Sur 21 Sudoeste 0 1016.3 -1.1 66
2018-01-22 02:00:00 14.5 7 Sudoeste 21 Sudeste 0 1016.7 -0.3 68
2018-01-22 01:00:00 15 8 Sur 23 Noroeste 0 1017.1 -0.3 65
2018-01-22 00:00:00 17.3 10 Noroeste 34 Oeste 0 1017.4 0.1 51